createdAt,value
2022-08-11T00:01:22.231Z,22.90
2022-08-11T00:03:56.575Z,22.90
2022-08-11T00:06:37.323Z,22.80
2022-08-11T00:09:10.554Z,22.70
2022-08-11T00:11:46.855Z,22.60
2022-08-11T00:14:23.638Z,22.50
2022-08-11T00:17:02.316Z,22.30
2022-08-11T00:20:14.918Z,22.30
2022-08-11T00:22:24.913Z,22.20
2022-08-11T00:24:56.006Z,22.10
2022-08-11T00:27:36.687Z,22.00
2022-08-11T00:30:06.856Z,21.80
2022-08-11T00:32:35.245Z,21.90
2022-08-11T00:35:56.094Z,21.80
2022-08-11T00:37:56.129Z,21.80
2022-08-11T00:40:44.206Z,21.70
2022-08-11T00:43:28.833Z,21.70
2022-08-11T00:46:34.731Z,21.70
2022-08-11T00:49:30.384Z,21.70
2022-08-11T00:52:48.033Z,21.60
2022-08-11T00:56:07.519Z,21.50
2022-08-11T00:59:34.923Z,21.50
2022-08-11T01:02:47.694Z,21.40
2022-08-11T01:05:45.342Z,21.30
2022-08-11T01:09:17.909Z,21.20
2022-08-11T01:12:01.528Z,21.20
2022-08-11T01:15:13.453Z,21.10
2022-08-11T01:18:32.746Z,21.00
2022-08-11T01:21:17.313Z,20.90
2022-08-11T01:24:38.967Z,20.80
2022-08-11T01:27:32.431Z,20.70
2022-08-11T01:30:25.896Z,20.60
2022-08-11T01:34:09.276Z,20.50
2022-08-11T01:37:00.358Z,20.50
2022-08-11T01:39:50.523Z,20.50
2022-08-11T01:43:23.572Z,20.40
2022-08-11T01:46:21.369Z,20.30
2022-08-11T01:50:06.854Z,20.30
2022-08-11T01:52:39.415Z,20.20
2022-08-11T01:55:32.243Z,20.20
2022-08-11T01:58:44.479Z,20.10
2022-08-11T02:01:50.439Z,20.10
2022-08-11T02:04:48.070Z,20.00
2022-08-11T02:07:53.906Z,20.10
2022-08-11T02:11:06.534Z,20.00
2022-08-11T02:13:48.782Z,20.00
2022-08-11T02:16:53.255Z,20.40
2022-08-11T02:20:01.133Z,20.00
2022-08-11T02:23:07.978Z,20.10
2022-08-11T02:26:05.482Z,20.00
2022-08-11T02:28:49.851Z,20.10
2022-08-11T02:32:25.229Z,20.10
2022-08-11T02:35:03.997Z,20.10
2022-08-11T02:37:33.576Z,20.10
2022-08-11T02:40:41.690Z,20.00
2022-08-11T02:43:51.106Z,20.10
2022-08-11T02:46:37.222Z,20.10
2022-08-11T02:49:24.250Z,20.00
2022-08-11T02:52:25.893Z,20.10
2022-08-11T02:55:55.780Z,20.00
2022-08-11T02:58:27.991Z,20.00
2022-08-11T03:01:11.585Z,20.00
2022-08-11T03:04:01.155Z,19.90
2022-08-11T03:07:01.100Z,20.10
2022-08-11T03:10:11.984Z,19.80
2022-08-11T03:13:10.244Z,19.80
2022-08-11T03:16:40.194Z,19.70
2022-08-11T03:19:44.623Z,19.70
2022-08-11T03:22:34.342Z,19.60
2022-08-11T03:25:31.531Z,19.60
2022-08-11T03:28:42.711Z,19.50
2022-08-11T03:31:20.456Z,19.40
2022-08-11T03:34:14.260Z,19.40
2022-08-11T03:37:38.270Z,19.40
2022-08-11T03:40:48.248Z,19.30
2022-08-11T03:43:58.550Z,19.30
2022-08-11T03:46:47.448Z,19.20
2022-08-11T03:50:10.919Z,19.20
2022-08-11T03:52:53.458Z,19.20
2022-08-11T03:55:45.163Z,19.20
2022-08-11T03:58:41.174Z,19.10
2022-08-11T04:01:49.215Z,19.10
2022-08-11T04:05:20.268Z,19.10
2022-08-11T04:08:27.130Z,19.10
2022-08-11T04:11:31.813Z,19.10
2022-08-11T04:15:01.593Z,19.00
2022-08-11T04:18:16.572Z,19.00
2022-08-11T04:21:08.095Z,19.00
2022-08-11T04:24:33.147Z,19.00
2022-08-11T04:27:39.742Z,18.90
2022-08-11T04:30:16.812Z,18.90
2022-08-11T04:33:35.052Z,19.40
2022-08-11T04:36:59.203Z,19.00
2022-08-11T04:40:19.939Z,19.00
2022-08-11T04:43:24.369Z,19.10
2022-08-11T04:46:20.469Z,19.10
2022-08-11T04:49:43.746Z,19.20
2022-08-11T04:53:06.174Z,19.30
2022-08-11T04:56:21.264Z,19.40
2022-08-11T04:59:38.172Z,19.50
2022-08-11T05:02:57.423Z,19.60
2022-08-11T05:06:00.920Z,19.80
2022-08-11T05:08:55.010Z,20.00
2022-08-11T05:11:48.985Z,20.10
2022-08-11T05:14:48.305Z,20.20
2022-08-11T05:17:51.654Z,20.30
2022-08-11T05:20:37.682Z,20.50
2022-08-11T05:23:27.247Z,20.60
2022-08-11T05:26:46.878Z,20.80
2022-08-11T05:29:47.259Z,20.90
2022-08-11T05:32:36.997Z,21.10
2022-08-11T05:35:07.455Z,21.40
2022-08-11T05:38:02.522Z,21.50
2022-08-11T05:40:51.139Z,21.70
2022-08-11T05:44:20.625Z,21.90
2022-08-11T05:46:47.883Z,22.10
2022-08-11T05:49:34.553Z,22.30
2022-08-11T05:52:25.514Z,22.40
2022-08-11T05:55:26.082Z,22.60
2022-08-11T05:58:01.938Z,22.70
2022-08-11T06:00:29.963Z,22.90
2022-08-11T06:03:04.001Z,23.00
2022-08-11T06:05:38.415Z,23.10
2022-08-11T06:08:13.393Z,23.20
2022-08-11T06:10:44.306Z,23.30
2022-08-11T06:13:17.119Z,23.40
2022-08-11T06:16:04.922Z,23.50
2022-08-11T06:18:35.281Z,23.70
2022-08-11T06:21:08.617Z,23.80
2022-08-11T06:23:36.488Z,24.00
2022-08-11T06:26:12.456Z,24.10
2022-08-11T06:28:46.815Z,24.20
2022-08-11T06:31:26.175Z,24.40
2022-08-11T06:34:08.209Z,24.40
2022-08-11T06:36:51.416Z,24.60
2022-08-11T06:40:07.266Z,24.70
2022-08-11T06:43:02.168Z,24.90
2022-08-11T06:45:37.557Z,25.00
2022-08-11T06:48:08.045Z,25.20
2022-08-11T06:50:53.805Z,25.30
2022-08-11T06:53:21.671Z,25.50
2022-08-11T06:56:09.011Z,25.60
2022-08-11T06:58:59.454Z,25.70
2022-08-11T07:01:47.708Z,26.00
2022-08-11T07:04:31.476Z,26.10
2022-08-11T07:07:52.663Z,26.30
2022-08-11T07:11:21.855Z,26.60
2022-08-11T07:14:12.631Z,26.80
2022-08-11T07:16:45.078Z,27.10
2022-08-11T07:19:36.169Z,27.20
2022-08-11T07:22:25.962Z,27.50
2022-08-11T07:25:17.137Z,27.70
2022-08-11T07:28:06.770Z,27.90
2022-08-11T07:30:41.303Z,28.20
2022-08-11T07:33:11.690Z,28.50
2022-08-11T07:36:02.603Z,28.80
2022-08-11T07:38:47.341Z,29.10
2022-08-11T07:41:18.826Z,29.30
2022-08-11T07:43:51.714Z,29.60
2022-08-11T07:46:39.182Z,29.90
2022-08-11T07:49:28.283Z,30.20
2022-08-11T07:52:21.652Z,30.60
2022-08-11T07:54:51.154Z,31.00
2022-08-11T07:57:50.172Z,31.30
2022-08-11T08:00:47.069Z,31.60
2022-08-11T08:03:38.771Z,31.90
2022-08-11T08:06:41.517Z,32.10
2022-08-11T08:09:28.064Z,32.30
2022-08-11T08:12:15.339Z,32.40
2022-08-11T08:15:01.441Z,32.70
2022-08-11T08:18:09.376Z,32.90
2022-08-11T08:20:49.784Z,33.10
2022-08-11T08:23:34.438Z,33.50
2022-08-11T08:26:26.768Z,33.70
2022-08-11T08:29:17.679Z,34.00
2022-08-11T08:31:46.650Z,34.20
2022-08-11T08:34:15.669Z,34.40
2022-08-11T08:36:48.054Z,34.50
2022-08-11T08:39:16.732Z,34.60
2022-08-11T08:41:45.315Z,34.70
2022-08-11T08:44:37.100Z,34.90
2022-08-11T08:47:06.147Z,35.00
2022-08-11T08:49:41.680Z,35.20
2022-08-11T08:52:30.632Z,35.40
2022-08-11T08:55:09.750Z,35.60
2022-08-11T08:57:40.174Z,35.80
2022-08-11T09:00:12.980Z,36.00
2022-08-11T09:02:44.985Z,36.10
2022-08-11T09:05:13.246Z,36.20
2022-08-11T09:07:41.686Z,36.20
2022-08-11T09:10:11.159Z,36.30
2022-08-11T09:12:42.645Z,36.50
2022-08-11T09:15:12.065Z,36.60
2022-08-11T09:18:06.056Z,36.60
2022-08-11T09:20:37.087Z,36.70
2022-08-11T09:26:42.152Z,37.00
2022-08-11T09:29:11.669Z,37.10
2022-08-11T09:31:40.446Z,37.10
2022-08-11T09:34:11.079Z,37.40
2022-08-11T09:37:01.450Z,37.30
2022-08-11T09:39:50.783Z,37.40
2022-08-11T09:42:23.360Z,37.40
2022-08-11T09:44:53.213Z,37.50
2022-08-11T09:47:29.464Z,37.60
2022-08-11T09:50:01.568Z,37.80
2022-08-11T09:52:57.232Z,37.90
2022-08-11T09:55:28.204Z,38.10
2022-08-11T09:58:42.273Z,38.20
2022-08-11T10:01:02.981Z,38.20
2022-08-11T10:03:37.127Z,38.30
2022-08-11T10:06:46.816Z,38.40
2022-08-11T10:09:21.286Z,38.50
2022-08-11T10:11:58.257Z,38.60
2022-08-11T10:14:48.052Z,38.70
2022-08-11T10:17:20.820Z,38.80
2022-08-11T10:20:05.485Z,38.80
2022-08-11T10:22:54.038Z,38.80
2022-08-11T10:25:40.787Z,38.80
2022-08-11T10:28:29.108Z,38.70
2022-08-11T10:31:16.977Z,38.60
2022-08-11T10:34:03.429Z,38.40
2022-08-11T10:36:53.917Z,38.30
2022-08-11T10:39:22.705Z,38.20
2022-08-11T10:42:14.333Z,38.20
2022-08-11T10:44:53.497Z,38.20
2022-08-11T10:47:36.774Z,38.20
2022-08-11T10:50:32.948Z,38.30
2022-08-11T10:53:19.695Z,38.40
2022-08-11T10:56:06.815Z,38.50
2022-08-11T10:58:52.178Z,38.60
2022-08-11T11:01:30.395Z,38.60
2022-08-11T11:04:05.568Z,38.50
2022-08-11T11:07:13.744Z,38.50
2022-08-11T11:09:58.916Z,38.50
2022-08-11T11:12:52.572Z,38.50
2022-08-11T11:15:41.875Z,38.30
2022-08-11T11:18:22.388Z,38.10
2022-08-11T11:20:58.564Z,37.90
2022-08-11T11:23:37.060Z,37.70
2022-08-11T11:26:38.575Z,37.60
2022-08-11T11:29:31.429Z,37.50
2022-08-11T11:32:35.243Z,37.30
2022-08-11T11:35:17.038Z,37.10
2022-08-11T11:38:03.539Z,37.00
2022-08-11T11:43:18.486Z,36.80
2022-08-11T11:45:45.650Z,36.80
2022-08-11T11:48:12.846Z,36.70
2022-08-11T11:50:40.418Z,36.70
2022-08-11T11:53:11.930Z,36.70
2022-08-11T11:55:39.672Z,36.60
2022-08-11T11:58:25.793Z,36.50
2022-08-11T12:01:12.828Z,36.50
2022-08-11T12:03:40.912Z,36.50
2022-08-11T12:06:12.986Z,36.40
2022-08-11T12:08:42.163Z,36.20
2022-08-11T12:11:31.637Z,36.00
2022-08-11T12:14:04.736Z,35.80
2022-08-11T12:16:44.533Z,35.70
2022-08-11T12:19:18.684Z,35.60
2022-08-11T12:22:05.289Z,35.50
2022-08-11T12:24:55.232Z,35.50
2022-08-11T12:27:25.613Z,35.40
2022-08-11T12:30:08.614Z,35.30
2022-08-11T12:32:38.784Z,35.30
2022-08-11T12:35:07.962Z,35.20
2022-08-11T12:37:49.260Z,35.20
2022-08-11T12:41:11.575Z,35.10
2022-08-11T12:43:56.838Z,35.10
2022-08-11T12:46:35.486Z,35.10
2022-08-11T12:49:33.061Z,35.10
2022-08-11T12:52:14.418Z,35.10
2022-08-11T12:55:08.481Z,35.00
2022-08-11T12:58:07.441Z,35.00
2022-08-11T13:00:53.516Z,34.80
2022-08-11T13:03:40.930Z,34.70
2022-08-11T13:06:09.445Z,34.60
2022-08-11T13:08:39.860Z,34.60
2022-08-11T13:11:56.633Z,34.50
2022-08-11T13:14:16.923Z,34.60
2022-08-11T13:17:04.670Z,34.50
2022-08-11T13:19:34.391Z,34.60
2022-08-11T13:22:05.485Z,34.60
2022-08-11T13:24:36.462Z,34.60
2022-08-11T13:27:04.502Z,34.60
2022-08-11T13:29:31.833Z,34.60
2022-08-11T13:32:00.365Z,34.60
2022-08-11T13:34:33.319Z,34.50
2022-08-11T13:37:05.323Z,34.40
2022-08-11T13:39:36.300Z,34.40
2022-08-11T13:42:05.334Z,34.40
2022-08-11T13:44:56.718Z,34.40
2022-08-11T13:47:25.295Z,34.50
2022-08-11T13:49:53.966Z,34.50
2022-08-11T13:52:21.015Z,34.40
2022-08-11T13:54:53.144Z,34.50
2022-08-11T13:58:07.516Z,34.50
2022-08-11T14:00:13.880Z,34.50
2022-08-11T14:02:55.546Z,34.50
2022-08-11T14:05:47.993Z,34.50
2022-08-11T14:08:37.315Z,34.60
2022-08-11T14:12:22.561Z,34.60
2022-08-11T14:14:23.234Z,34.60
2022-08-11T14:16:53.849Z,34.60
2022-08-11T14:19:26.206Z,34.50
2022-08-11T14:22:08.433Z,34.50
2022-08-11T14:24:49.459Z,34.50
2022-08-11T14:28:30.020Z,34.60
2022-08-11T14:30:26.385Z,34.50
2022-08-11T14:32:56.147Z,34.50
2022-08-11T14:35:27.183Z,34.40
2022-08-11T14:37:57.132Z,34.40
2022-08-11T14:40:44.785Z,34.30
2022-08-11T14:44:13.112Z,34.30
2022-08-11T14:46:36.746Z,34.30
2022-08-11T14:49:05.355Z,34.30
2022-08-11T14:51:34.428Z,34.30
2022-08-11T14:54:23.221Z,34.40
2022-08-11T14:56:56.794Z,34.40
2022-08-11T14:59:27.039Z,34.40
2022-08-11T15:02:12.502Z,34.40
2022-08-11T15:04:40.364Z,34.40
2022-08-11T15:07:16.818Z,34.30
2022-08-11T15:10:11.639Z,34.30
2022-08-11T15:12:35.019Z,34.20
2022-08-11T15:15:36.755Z,34.20
2022-08-11T15:18:07.449Z,34.20
2022-08-11T15:20:53.956Z,34.10
2022-08-11T15:23:39.951Z,34.10
2022-08-11T15:26:19.308Z,34.00
2022-08-11T15:29:11.904Z,34.00
2022-08-11T15:31:49.410Z,33.90
2022-08-11T15:34:38.769Z,33.90
2022-08-11T15:37:32.945Z,33.80
2022-08-11T15:41:18.454Z,33.70
2022-08-11T15:44:11.856Z,33.60
2022-08-11T15:46:45.490Z,33.60
2022-08-11T15:49:23.809Z,33.60
2022-08-11T15:52:13.543Z,33.70
2022-08-11T15:54:43.054Z,33.70
2022-08-11T15:57:39.759Z,33.60
2022-08-11T16:00:28.292Z,33.60
2022-08-11T16:03:54.399Z,33.60
2022-08-11T16:06:22.573Z,33.60
2022-08-11T16:08:56.278Z,33.50
2022-08-11T16:11:25.071Z,33.40
2022-08-11T16:14:14.389Z,33.40
2022-08-11T16:16:43.902Z,33.30
2022-08-11T16:19:13.366Z,33.20
2022-08-11T16:21:43.053Z,33.20
2022-08-11T16:25:58.215Z,33.20
2022-08-11T16:27:13.657Z,33.20
2022-08-11T16:29:47.857Z,33.20
2022-08-11T16:32:23.132Z,33.10
2022-08-11T16:35:14.451Z,33.10
2022-08-11T16:38:02.962Z,33.10
2022-08-11T16:40:31.069Z,33.10
2022-08-11T16:43:18.123Z,33.00
2022-08-11T16:46:04.570Z,33.00
2022-08-11T16:48:38.162Z,32.90
2022-08-11T16:51:08.052Z,32.90
2022-08-11T16:53:46.060Z,32.90
2022-08-11T16:56:30.033Z,32.90
2022-08-11T16:59:14.565Z,32.80
2022-08-11T17:01:46.592Z,32.80
2022-08-11T17:04:58.226Z,32.70
2022-08-11T17:07:48.728Z,32.80
2022-08-11T17:10:57.658Z,32.70
2022-08-11T17:13:56.011Z,32.70
2022-08-11T17:16:32.425Z,32.60
2022-08-11T17:20:41.532Z,32.60
2022-08-11T17:22:44.146Z,32.60
2022-08-11T17:25:13.171Z,32.50
2022-08-11T17:27:43.440Z,32.50
2022-08-11T17:30:12.324Z,32.50
2022-08-11T17:33:06.044Z,32.50
2022-08-11T17:35:39.752Z,32.50
2022-08-11T17:38:20.661Z,32.40
2022-08-11T17:41:13.476Z,32.30
2022-08-11T17:44:07.615Z,32.20
2022-08-11T17:47:00.112Z,32.20
2022-08-11T17:49:37.229Z,32.20
2022-08-11T17:52:26.050Z,32.20
2022-08-11T17:55:16.995Z,32.10
2022-08-11T17:58:22.887Z,32.10
2022-08-11T18:00:52.065Z,32.10
2022-08-11T18:03:32.476Z,32.00
2022-08-11T18:06:04.479Z,32.00
2022-08-11T18:08:53.224Z,31.90
2022-08-11T18:12:09.910Z,31.90
2022-08-11T18:14:52.737Z,31.80
2022-08-11T18:17:38.679Z,31.80
2022-08-11T18:20:25.941Z,31.70
2022-08-11T18:23:15.231Z,31.70
2022-08-11T18:26:07.434Z,31.60
2022-08-11T18:29:04.048Z,31.50
2022-08-11T18:31:53.884Z,31.50
2022-08-11T18:34:56.047Z,31.40
2022-08-11T18:37:49.333Z,31.40
2022-08-11T18:40:45.509Z,31.30
2022-08-11T18:43:35.169Z,31.10
2022-08-11T18:46:27.018Z,31.00
2022-08-11T18:49:21.371Z,30.80
2022-08-11T18:52:11.970Z,30.80
2022-08-11T18:55:01.931Z,30.60
2022-08-11T18:57:54.475Z,30.50
2022-08-11T19:00:42.750Z,30.40
2022-08-11T19:03:32.689Z,30.20
2022-08-11T19:06:38.169Z,30.10
2022-08-11T19:09:32.041Z,30.00
2022-08-11T19:12:19.567Z,29.90
2022-08-11T19:15:09.557Z,29.80
2022-08-11T19:18:00.099Z,29.70
2022-08-11T19:20:49.662Z,29.60
2022-08-11T19:23:52.069Z,29.50
2022-08-11T19:26:40.152Z,29.40
2022-08-11T19:30:07.675Z,29.30
2022-08-11T19:32:35.250Z,29.20
2022-08-11T19:35:22.121Z,29.10
2022-08-11T19:38:09.985Z,29.00
2022-08-11T19:40:58.365Z,29.00
2022-08-11T19:43:48.226Z,29.00
2022-08-11T19:46:38.013Z,28.70
2022-08-11T19:49:25.655Z,28.50
2022-08-11T19:52:12.803Z,28.40
2022-08-11T19:55:02.306Z,28.30
2022-08-11T19:57:50.463Z,28.20
2022-08-11T20:00:40.031Z,28.20
2022-08-11T20:03:29.858Z,28.10
2022-08-11T20:06:21.535Z,28.00
2022-08-11T20:09:09.378Z,27.90
2022-08-11T20:11:59.700Z,27.90
2022-08-11T20:14:50.967Z,27.80
2022-08-11T20:17:39.985Z,27.80
2022-08-11T20:20:27.356Z,27.70
2022-08-11T20:23:16.068Z,27.60
2022-08-11T20:26:27.695Z,27.50
2022-08-11T20:29:13.813Z,27.50
2022-08-11T20:32:04.308Z,27.40
2022-08-11T20:34:57.089Z,27.30
2022-08-11T20:37:50.829Z,27.40
2022-08-11T20:40:43.177Z,27.20
2022-08-11T20:44:06.984Z,27.10
2022-08-11T20:46:45.295Z,27.10
2022-08-11T20:49:45.031Z,26.90
2022-08-11T20:52:41.533Z,26.90
2022-08-11T20:59:13.334Z,26.80
2022-08-11T21:01:46.272Z,26.80
2022-08-11T21:04:35.135Z,26.70
2022-08-11T21:07:28.572Z,26.70
2022-08-11T21:10:23.142Z,26.70
2022-08-11T21:13:26.280Z,26.60
2022-08-11T21:16:25.651Z,26.60
2022-08-11T21:20:00.215Z,26.60
2022-08-11T21:22:35.092Z,26.40
2022-08-11T21:25:22.329Z,26.20
2022-08-11T21:28:10.773Z,26.20
2022-08-11T21:30:58.635Z,26.10
2022-08-11T21:33:49.553Z,26.00
2022-08-11T21:36:37.861Z,25.90
2022-08-11T21:39:26.383Z,25.80
2022-08-11T21:42:15.078Z,25.70
2022-08-11T21:45:03.473Z,25.70
2022-08-11T21:48:01.170Z,25.60
2022-08-11T21:50:47.407Z,25.70
2022-08-11T21:53:34.904Z,25.50
2022-08-11T21:56:26.188Z,25.50
2022-08-11T21:59:16.211Z,25.50
2022-08-11T22:02:04.711Z,25.40
2022-08-11T22:04:56.556Z,25.40
2022-08-11T22:07:43.395Z,25.30
2022-08-11T22:10:42.504Z,25.30
2022-08-11T22:13:31.036Z,25.20
2022-08-11T22:16:18.897Z,25.20
2022-08-11T22:19:09.453Z,25.20
2022-08-11T22:22:02.869Z,25.10
2022-08-11T22:24:54.692Z,25.00
2022-08-11T22:27:41.220Z,24.90
2022-08-11T22:30:30.198Z,24.90
2022-08-11T22:33:25.568Z,24.80
2022-08-11T22:36:17.046Z,24.80
2022-08-11T22:39:06.135Z,24.70
2022-08-11T22:41:52.808Z,24.70
2022-08-11T22:44:47.940Z,24.60
2022-08-11T22:47:40.656Z,24.60
2022-08-11T22:50:39.180Z,24.60
2022-08-11T22:53:58.301Z,24.50
2022-08-11T22:56:38.190Z,24.50
2022-08-11T22:59:26.172Z,24.40
2022-08-11T23:02:13.300Z,24.40
2022-08-11T23:04:59.401Z,24.40
2022-08-11T23:07:50.187Z,24.30
2022-08-11T23:10:39.239Z,24.80
2022-08-11T23:13:26.635Z,24.30
2022-08-11T23:16:14.241Z,24.30
2022-08-11T23:19:00.921Z,24.40
2022-08-11T23:21:47.117Z,24.10
2022-08-11T23:24:33.422Z,24.30
2022-08-11T23:27:21.307Z,24.00
2022-08-11T23:30:09.719Z,24.00
2022-08-11T23:33:03.539Z,24.10
2022-08-11T23:35:55.481Z,24.00
2022-08-11T23:38:42.738Z,23.90
2022-08-11T23:41:29.126Z,23.90
2022-08-11T23:44:15.376Z,23.80
2022-08-11T23:47:07.260Z,23.80
2022-08-11T23:49:56.341Z,23.80
2022-08-11T23:52:48.416Z,23.70
2022-08-11T23:55:41.638Z,23.70
2022-08-11T23:58:30.118Z,23.60
